createdAt,value
2022-09-17T00:01:37.074Z,12.95
2022-09-17T00:04:05.761Z,7.15
2022-09-17T00:06:35.769Z,11.45
2022-09-17T00:09:05.037Z,6.63
2022-09-17T00:11:35.587Z,9.45
2022-09-17T00:14:06.456Z,8.27
2022-09-17T00:16:38.054Z,9.00
2022-09-17T00:19:08.639Z,8.55
2022-09-17T00:21:36.783Z,6.20
2022-09-17T00:24:07.176Z,9.98
2022-09-17T00:26:37.080Z,7.45
2022-09-17T00:29:06.098Z,8.45
2022-09-17T00:31:36.636Z,9.18
2022-09-17T00:34:05.936Z,8.18
2022-09-17T00:36:36.688Z,8.23
2022-09-17T00:39:07.418Z,7.70
2022-09-17T00:41:37.896Z,6.85
2022-09-17T00:44:40.086Z,8.52
2022-09-17T00:47:16.287Z,9.35
2022-09-17T00:49:45.197Z,6.60
2022-09-17T00:52:17.037Z,7.53
2022-09-17T00:54:52.838Z,6.28
2022-09-17T00:57:21.147Z,8.15
2022-09-17T00:59:50.027Z,7.47
2022-09-17T01:02:20.385Z,6.28
2022-09-17T01:04:48.626Z,7.80
2022-09-17T01:07:33.907Z,9.50
2022-09-17T01:10:13.376Z,7.10
2022-09-17T01:12:57.197Z,10.95
2022-09-17T01:15:32.767Z,6.90
2022-09-17T01:18:22.987Z,7.57
2022-09-17T01:21:27.518Z,9.13
2022-09-17T01:24:26.066Z,7.15
2022-09-17T01:27:26.578Z,7.97
2022-09-17T01:30:09.637Z,12.05
2022-09-17T01:32:43.757Z,10.52
2022-09-17T01:35:20.256Z,6.43
2022-09-17T01:40:28.922Z,12.75
2022-09-17T01:43:02.347Z,12.75
2022-09-17T01:45:36.417Z,7.47
2022-09-17T01:48:13.141Z,7.57
2022-09-17T01:50:48.339Z,8.85
2022-09-17T01:53:18.839Z,9.65
2022-09-17T01:55:49.502Z,7.75
2022-09-17T01:58:21.519Z,5.72
2022-09-17T02:00:53.432Z,9.50
2022-09-17T02:03:27.018Z,5.93
2022-09-17T02:05:58.649Z,11.18
2022-09-17T02:08:30.358Z,7.97
2022-09-17T02:11:02.347Z,8.20
2022-09-17T02:13:35.520Z,7.93
2022-09-17T02:16:08.112Z,8.00
2022-09-17T02:18:43.521Z,6.32
2022-09-17T02:21:15.890Z,6.65
2022-09-17T02:23:50.904Z,6.75
2022-09-17T02:26:21.673Z,9.02
2022-09-17T02:28:56.431Z,6.65
2022-09-17T02:31:24.261Z,8.70
2022-09-17T02:33:57.356Z,8.50
2022-09-17T02:36:25.318Z,7.32
2022-09-17T02:38:59.076Z,7.55
2022-09-17T02:41:36.497Z,7.53
2022-09-17T02:44:14.775Z,6.82
2022-09-17T02:46:58.138Z,8.10
2022-09-17T02:49:40.672Z,6.40
2022-09-17T02:52:16.856Z,6.50
2022-09-17T02:54:52.679Z,6.00
2022-09-17T02:57:26.464Z,5.68
2022-09-17T02:59:59.154Z,7.07
2022-09-17T03:02:32.531Z,6.65
2022-09-17T03:05:02.144Z,7.95
2022-09-17T03:07:29.930Z,7.60
2022-09-17T03:09:58.163Z,8.85
2022-09-17T03:12:27.540Z,8.45
2022-09-17T03:14:55.231Z,10.77
2022-09-17T03:17:23.177Z,5.03
2022-09-17T03:19:50.847Z,7.43
2022-09-17T03:22:20.042Z,5.70
2022-09-17T03:24:48.059Z,5.43
2022-09-17T03:27:15.928Z,7.10
2022-09-17T03:29:43.818Z,5.45
2022-09-17T03:32:12.000Z,5.78
2022-09-17T03:34:40.013Z,8.30
2022-09-17T03:37:07.727Z,6.55
2022-09-17T03:39:37.219Z,5.18
2022-09-17T03:42:05.539Z,6.97
2022-09-17T03:44:33.279Z,6.13
2022-09-17T03:47:01.168Z,7.32
2022-09-17T03:49:28.961Z,7.82
2022-09-17T03:51:59.969Z,9.50
2022-09-17T03:54:28.019Z,4.80
2022-09-17T03:56:57.378Z,7.18
2022-09-17T03:59:25.298Z,5.03
2022-09-17T04:01:53.243Z,11.48
2022-09-17T04:04:21.240Z,4.57
2022-09-17T04:06:49.511Z,7.70
2022-09-17T04:09:17.510Z,7.80
2022-09-17T04:11:45.399Z,8.65
2022-09-17T04:14:14.814Z,7.43
2022-09-17T04:16:42.658Z,5.25
2022-09-17T04:19:10.750Z,7.53
2022-09-17T04:21:38.649Z,8.75
2022-09-17T04:24:06.970Z,7.20
2022-09-17T04:26:34.720Z,6.45
2022-09-17T04:29:02.673Z,8.52
2022-09-17T04:31:32.170Z,5.53
2022-09-17T04:34:00.198Z,7.57
2022-09-17T04:36:28.021Z,6.95
2022-09-17T04:38:55.929Z,7.13
2022-09-17T04:41:23.779Z,5.68
2022-09-17T04:43:51.909Z,9.38
2022-09-17T04:46:19.819Z,6.55
2022-09-17T04:48:49.138Z,8.82
2022-09-17T04:51:16.927Z,7.68
2022-09-17T04:53:45.820Z,6.25
2022-09-17T04:56:13.688Z,5.85
2022-09-17T04:58:41.830Z,7.72
2022-09-17T05:01:09.806Z,7.25
2022-09-17T05:03:37.790Z,6.57
2022-09-17T05:06:07.320Z,8.50
2022-09-17T05:08:35.167Z,7.38
2022-09-17T05:11:03.112Z,7.63
2022-09-17T05:13:31.000Z,6.32
2022-09-17T05:15:58.872Z,6.55
2022-09-17T05:18:26.858Z,7.72
2022-09-17T05:20:54.639Z,5.63
2022-09-17T05:23:23.970Z,6.82
2022-09-17T05:25:53.067Z,9.90
2022-09-17T05:28:21.529Z,11.20
2022-09-17T05:30:49.512Z,8.93
2022-09-17T05:33:17.349Z,9.65
2022-09-17T05:35:45.498Z,10.00
2022-09-17T05:38:14.340Z,10.10
2022-09-17T05:40:43.749Z,7.65
2022-09-17T05:43:11.679Z,9.00
2022-09-17T05:45:39.641Z,10.02
2022-09-17T05:48:10.674Z,6.38
2022-09-17T05:50:38.967Z,8.25
2022-09-17T05:53:09.432Z,8.93
2022-09-17T05:55:37.752Z,8.80
2022-09-17T05:58:14.978Z,9.55
2022-09-17T06:00:43.629Z,10.80
2022-09-17T06:03:13.606Z,11.02
2022-09-17T06:05:41.975Z,8.80
2022-09-17T06:08:10.488Z,7.38
2022-09-17T06:10:39.699Z,10.48
2022-09-17T06:13:07.960Z,10.20
2022-09-17T06:15:37.492Z,13.35
2022-09-17T06:18:05.664Z,8.75
2022-09-17T06:20:33.957Z,8.57
2022-09-17T06:23:02.042Z,11.57
2022-09-17T06:25:30.232Z,13.30
2022-09-17T06:27:58.348Z,10.63
2022-09-17T06:30:26.586Z,12.65
2022-09-17T06:32:56.228Z,11.60
2022-09-17T06:35:24.402Z,8.27
2022-09-17T06:37:52.579Z,8.13
2022-09-17T06:40:23.711Z,11.82
2022-09-17T06:42:57.035Z,8.70
2022-09-17T06:45:25.346Z,11.98
2022-09-17T06:47:53.586Z,11.23
2022-09-17T06:50:23.552Z,12.45
2022-09-17T06:52:52.193Z,11.07
2022-09-17T06:55:20.640Z,11.48
2022-09-17T06:57:49.009Z,13.10
2022-09-17T07:00:17.395Z,17.13
2022-09-17T07:02:55.014Z,15.30
2022-09-17T07:05:25.434Z,13.35
2022-09-17T07:07:54.281Z,17.75
2022-09-17T07:10:27.183Z,13.10
2022-09-17T07:12:55.412Z,16.55
2022-09-17T07:15:24.161Z,12.13
2022-09-17T07:17:52.444Z,13.43
2022-09-17T07:20:20.627Z,21.38
2022-09-17T07:22:57.910Z,13.73
2022-09-17T07:25:29.641Z,15.98
2022-09-17T07:27:58.065Z,18.40
2022-09-17T07:30:26.354Z,14.13
2022-09-17T07:32:54.528Z,14.07
2022-09-17T07:35:22.757Z,12.02
2022-09-17T07:37:51.079Z,9.52
2022-09-17T07:40:21.009Z,10.27
2022-09-17T07:45:22.524Z,11.82
2022-09-17T07:50:23.748Z,11.82
2022-09-17T07:52:52.205Z,17.48
2022-09-17T07:55:24.181Z,13.52
2022-09-17T07:57:53.234Z,11.75
2022-09-17T08:00:21.619Z,10.00
2022-09-17T08:02:54.728Z,13.23
2022-09-17T08:05:24.830Z,15.45
2022-09-17T08:07:54.079Z,11.60
2022-09-17T08:10:24.669Z,11.65
2022-09-17T08:12:57.364Z,13.20
2022-09-17T08:15:26.261Z,12.07
2022-09-17T08:17:54.616Z,16.85
2022-09-17T08:20:24.569Z,12.27
2022-09-17T08:22:59.874Z,13.05
2022-09-17T08:25:29.687Z,8.27
2022-09-17T08:27:57.904Z,10.85
2022-09-17T08:30:26.162Z,6.55
2022-09-17T08:33:00.981Z,6.93
2022-09-17T08:35:30.919Z,6.25
2022-09-17T08:41:13.049Z,1.02
2022-09-17T08:43:47.238Z,3.78
2022-09-17T08:46:15.467Z,4.85
2022-09-17T08:48:49.357Z,4.35
2022-09-17T08:54:20.236Z,2.90
2022-09-17T08:57:02.536Z,2.28
2022-09-17T08:59:39.208Z,5.40
2022-09-17T09:04:59.356Z,2.83
2022-09-17T09:07:31.445Z,0.90
2022-09-17T09:10:08.977Z,2.00
2022-09-17T09:12:39.405Z,0.20
2022-09-17T09:15:17.915Z,1.30
2022-09-17T09:17:48.217Z,0.88
2022-09-17T09:20:18.714Z,2.20
2022-09-17T09:22:49.145Z,1.02
2022-09-17T09:25:23.487Z,2.17
2022-09-17T09:28:02.605Z,0.20
2022-09-17T09:30:40.656Z,1.55
2022-09-17T09:33:14.550Z,1.25
2022-09-17T09:35:45.807Z,0.35
2022-09-17T09:38:21.838Z,0.10
2022-09-17T09:40:56.316Z,2.13
2022-09-17T09:43:59.955Z,1.67
2022-09-17T09:46:41.414Z,0.10
2022-09-17T09:49:22.116Z,0.10
2022-09-17T09:52:00.971Z,1.55
2022-09-17T09:54:42.928Z,0.77
2022-09-17T09:57:14.648Z,1.30
2022-09-17T09:59:44.038Z,0.20
2022-09-17T10:02:12.040Z,1.00
2022-09-17T10:04:40.150Z,0.10
2022-09-17T10:07:09.987Z,0.75
2022-09-17T10:09:39.600Z,0.10
2022-09-17T10:12:17.958Z,0.20
2022-09-17T10:14:47.760Z,1.35
2022-09-17T10:17:21.826Z,1.70
2022-09-17T10:20:16.499Z,0.22
2022-09-17T10:22:48.638Z,0.13
2022-09-17T10:25:29.825Z,0.38
2022-09-17T10:27:59.177Z,2.97
2022-09-17T10:30:29.689Z,0.57
2022-09-17T10:33:20.295Z,2.25
2022-09-17T10:36:05.931Z,0.75
2022-09-17T10:38:37.619Z,3.05
2022-09-17T10:41:18.089Z,0.40
2022-09-17T10:43:46.837Z,0.43
2022-09-17T10:46:25.341Z,0.45
2022-09-17T10:49:08.397Z,1.40
2022-09-17T10:51:39.103Z,1.58
2022-09-17T10:54:26.060Z,1.55
2022-09-17T10:56:57.636Z,1.75
2022-09-17T11:02:54.577Z,0.30
2022-09-17T11:05:40.503Z,2.60
2022-09-17T11:08:17.097Z,1.27
2022-09-17T11:10:54.427Z,0.40
2022-09-17T11:13:33.732Z,0.10
2022-09-17T11:16:19.942Z,0.90
2022-09-17T11:18:58.110Z,0.50
2022-09-17T11:21:42.370Z,0.25
2022-09-17T11:24:48.830Z,0.45
2022-09-17T11:27:35.548Z,0.22
2022-09-17T11:30:11.089Z,0.85
2022-09-17T11:33:11.220Z,1.42
2022-09-17T11:35:45.811Z,0.68
2022-09-17T11:38:20.666Z,1.80
2022-09-17T11:40:53.104Z,0.10
2022-09-17T11:43:26.684Z,0.13
2022-09-17T11:46:01.033Z,0.10
2022-09-17T11:48:39.697Z,0.10
2022-09-17T11:51:31.182Z,2.00
2022-09-17T11:54:08.348Z,0.40
2022-09-17T11:56:42.199Z,0.75
2022-09-17T11:59:22.170Z,1.40
2022-09-17T12:01:58.344Z,0.52
2022-09-17T12:04:41.486Z,0.35
2022-09-17T12:07:22.762Z,0.00
2022-09-17T12:09:55.826Z,0.52
2022-09-17T12:12:48.406Z,0.00
2022-09-17T12:15:19.204Z,0.10
2022-09-17T12:18:14.380Z,0.20
2022-09-17T12:20:46.846Z,0.25
2022-09-17T12:23:20.425Z,0.20
2022-09-17T12:25:53.965Z,1.73
2022-09-17T12:28:28.045Z,0.90
2022-09-17T12:31:05.654Z,0.20
2022-09-17T12:33:41.377Z,0.32
2022-09-17T12:36:27.965Z,0.32
2022-09-17T12:39:31.197Z,0.75
2022-09-17T12:42:09.367Z,0.20
2022-09-17T12:45:06.815Z,0.10
2022-09-17T12:47:49.791Z,0.10
2022-09-17T12:50:30.699Z,0.75
2022-09-17T12:53:14.536Z,0.10
2022-09-17T12:56:12.027Z,0.15
2022-09-17T12:59:16.397Z,1.05
2022-09-17T13:01:51.198Z,1.60
2022-09-17T13:04:50.188Z,0.57
2022-09-17T13:07:55.422Z,1.10
2022-09-17T13:10:47.116Z,1.00
2022-09-17T13:13:29.610Z,0.75
2022-09-17T13:16:13.298Z,1.30
2022-09-17T13:19:15.089Z,0.30
2022-09-17T13:21:46.308Z,0.40
2022-09-17T13:24:20.007Z,0.10
2022-09-17T13:26:48.756Z,1.13
2022-09-17T13:30:05.027Z,0.28
2022-09-17T13:32:51.320Z,0.10
2022-09-17T13:35:52.408Z,0.10
2022-09-17T13:38:23.911Z,0.10
2022-09-17T13:41:13.731Z,0.15
2022-09-17T13:43:46.962Z,0.50
2022-09-17T13:46:24.528Z,0.30
2022-09-17T13:48:58.897Z,0.55
2022-09-17T13:51:59.923Z,0.10
2022-09-17T13:55:03.448Z,0.57
2022-09-17T13:57:34.399Z,0.45
2022-09-17T14:00:03.908Z,0.20
2022-09-17T14:02:39.901Z,1.67
2022-09-17T14:05:35.216Z,0.35
2022-09-17T14:08:29.596Z,0.43
2022-09-17T14:11:19.923Z,0.13
2022-09-17T14:13:48.682Z,0.43
2022-09-17T14:16:46.626Z,0.95
2022-09-17T14:19:33.808Z,1.10
2022-09-17T14:24:38.434Z,0.30
2022-09-17T14:27:16.084Z,0.20
2022-09-17T14:30:15.149Z,0.70
2022-09-17T14:32:48.897Z,0.17
2022-09-17T14:36:18.649Z,0.10
2022-09-17T14:41:30.693Z,2.45
2022-09-17T14:44:02.828Z,0.25
2022-09-17T14:46:33.698Z,1.25
2022-09-17T14:49:16.446Z,0.22
2022-09-17T14:51:45.594Z,0.45
2022-09-17T14:54:26.923Z,0.30
2022-09-17T14:56:58.524Z,0.43
2022-09-17T15:02:37.512Z,0.20
2022-09-17T15:05:35.654Z,0.10
2022-09-17T15:08:12.793Z,0.13
2022-09-17T15:10:50.182Z,1.05
2022-09-17T15:13:23.329Z,0.50
2022-09-17T15:16:17.222Z,0.65
2022-09-17T15:18:51.005Z,0.20
2022-09-17T15:21:28.618Z,0.30
2022-09-17T15:24:01.677Z,0.20
2022-09-17T15:26:34.810Z,0.28
2022-09-17T15:29:05.740Z,0.10
2022-09-17T15:31:34.377Z,0.38
2022-09-17T15:34:25.644Z,0.40
2022-09-17T15:37:20.338Z,0.22
2022-09-17T15:39:51.211Z,0.32
2022-09-17T15:42:24.530Z,0.60
2022-09-17T15:44:52.748Z,0.50
2022-09-17T15:47:53.546Z,0.43
2022-09-17T15:50:23.809Z,0.30
2022-09-17T15:52:58.603Z,0.30
2022-09-17T15:55:35.994Z,0.20
2022-09-17T15:58:25.137Z,0.43
2022-09-17T16:01:40.150Z,0.22
2022-09-17T16:04:26.447Z,0.10
2022-09-17T16:07:29.999Z,1.65
2022-09-17T16:09:59.795Z,0.15
2022-09-17T16:12:29.506Z,0.63
2022-09-17T16:15:01.950Z,0.85
2022-09-17T16:17:43.491Z,0.47
2022-09-17T16:20:17.327Z,0.45
2022-09-17T16:22:50.222Z,0.88
2022-09-17T16:25:20.473Z,0.55
2022-09-17T16:27:52.236Z,0.75
2022-09-17T16:30:23.941Z,0.45
2022-09-17T16:32:53.357Z,0.73
2022-09-17T16:35:23.468Z,1.75
2022-09-17T16:37:53.399Z,0.52
2022-09-17T16:40:23.631Z,0.93
2022-09-17T16:42:52.725Z,1.00
2022-09-17T16:45:28.122Z,0.82
2022-09-17T16:47:57.787Z,1.63
2022-09-17T16:50:26.562Z,0.95
2022-09-17T16:52:55.561Z,2.63
2022-09-17T16:55:24.610Z,1.38
2022-09-17T16:57:53.113Z,1.38
2022-09-17T17:00:23.145Z,0.50
2022-09-17T17:02:56.443Z,0.80
2022-09-17T17:05:27.136Z,0.68
2022-09-17T17:07:55.676Z,1.40
2022-09-17T17:10:24.206Z,0.43
2022-09-17T17:12:53.084Z,1.48
2022-09-17T17:15:22.973Z,1.23
2022-09-17T17:17:51.464Z,0.85
2022-09-17T17:20:20.052Z,1.52
2022-09-17T17:22:48.188Z,2.97
2022-09-17T17:25:16.482Z,1.48
2022-09-17T17:27:45.211Z,2.92
2022-09-17T17:30:17.794Z,1.30
2022-09-17T17:32:51.077Z,1.15
2022-09-17T17:35:19.592Z,1.33
2022-09-17T17:37:48.930Z,2.28
2022-09-17T17:40:17.533Z,1.40
2022-09-17T17:42:48.005Z,1.10
2022-09-17T17:45:16.517Z,5.95
2022-09-17T17:47:44.738Z,0.55
2022-09-17T17:50:16.174Z,0.50
2022-09-17T17:52:48.244Z,0.57
2022-09-17T17:55:16.978Z,0.80
2022-09-17T17:57:45.474Z,2.38
2022-09-17T18:00:15.128Z,1.48
2022-09-17T18:02:43.487Z,0.60
2022-09-17T18:05:13.795Z,2.55
2022-09-17T18:10:16.084Z,1.88
2022-09-17T18:12:50.990Z,1.48
2022-09-17T18:15:19.815Z,0.85
2022-09-17T18:17:50.439Z,0.75
2022-09-17T18:20:22.504Z,1.33
2022-09-17T18:22:51.455Z,1.27
2022-09-17T18:25:20.123Z,1.75
2022-09-17T18:27:48.794Z,1.17
2022-09-17T18:30:33.102Z,0.50
2022-09-17T18:33:02.121Z,2.58
2022-09-17T18:35:35.738Z,4.10
2022-09-17T18:38:07.019Z,0.93
2022-09-17T18:40:35.323Z,1.45
2022-09-17T18:43:03.479Z,2.53
2022-09-17T18:45:32.489Z,1.40
2022-09-17T18:48:00.540Z,1.75
2022-09-17T18:50:28.760Z,1.20
2022-09-17T18:52:58.242Z,1.30
2022-09-17T18:55:26.560Z,2.13
2022-09-17T18:57:54.560Z,1.52
2022-09-17T19:00:24.599Z,2.53
2022-09-17T19:02:53.044Z,2.13
2022-09-17T19:05:21.071Z,2.63
2022-09-17T19:07:50.140Z,2.50
2022-09-17T19:10:19.750Z,3.00
2022-09-17T19:12:50.238Z,3.92
2022-09-17T19:15:19.758Z,2.15
2022-09-17T19:17:47.729Z,2.60
2022-09-17T19:20:16.408Z,1.67
2022-09-17T19:23:04.760Z,2.80
2022-09-17T19:25:36.941Z,2.63
2022-09-17T19:28:05.658Z,1.17
2022-09-17T19:30:34.250Z,1.40
2022-09-17T19:33:02.640Z,2.13
2022-09-17T19:35:30.650Z,1.42
2022-09-17T19:37:59.601Z,1.30
2022-09-17T19:40:28.398Z,3.88
2022-09-17T19:43:03.210Z,2.17
2022-09-17T19:45:32.087Z,2.00
2022-09-17T19:48:01.936Z,2.13
2022-09-17T19:50:32.018Z,3.45
2022-09-17T19:53:00.424Z,2.83
2022-09-17T19:55:28.657Z,3.50
2022-09-17T19:58:04.095Z,3.05
2022-09-17T20:00:32.617Z,2.10
2022-09-17T20:03:02.767Z,2.05
2022-09-17T20:05:31.548Z,2.70
2022-09-17T20:07:59.627Z,2.00
2022-09-17T20:10:30.257Z,0.85
2022-09-17T20:13:00.417Z,1.20
2022-09-17T20:15:28.652Z,2.42
2022-09-17T20:17:57.109Z,3.33
2022-09-17T20:20:28.749Z,1.60
2022-09-17T20:22:56.936Z,2.53
2022-09-17T20:25:26.031Z,3.60
2022-09-17T20:27:54.521Z,2.00
2022-09-17T20:30:23.995Z,1.73
2022-09-17T20:32:51.858Z,3.85
2022-09-17T20:35:19.919Z,2.13
2022-09-17T20:40:36.157Z,2.45
2022-09-17T20:43:04.114Z,2.80
2022-09-17T20:45:33.720Z,2.40
2022-09-17T20:48:02.723Z,2.55
2022-09-17T20:50:31.124Z,2.08
2022-09-17T20:52:59.308Z,1.98
2022-09-17T20:55:27.240Z,3.25
2022-09-17T20:57:55.168Z,4.63
2022-09-17T21:00:26.215Z,2.63
2022-09-17T21:02:56.958Z,4.28
2022-09-17T21:07:58.429Z,4.50
2022-09-17T21:10:26.463Z,3.38
2022-09-17T21:12:54.453Z,2.70
2022-09-17T21:15:22.499Z,5.50
2022-09-17T21:17:50.888Z,2.05
2022-09-17T21:20:20.126Z,3.97
2022-09-17T21:22:48.342Z,5.18
2022-09-17T21:25:16.293Z,2.63
2022-09-17T21:27:44.320Z,4.53
2022-09-17T21:30:13.187Z,2.22
2022-09-17T21:32:41.303Z,3.40
2022-09-17T21:35:09.764Z,4.15
2022-09-17T21:37:39.158Z,2.78
2022-09-17T21:40:08.480Z,5.15
2022-09-17T21:42:38.925Z,4.28
2022-09-17T21:45:07.632Z,3.85
2022-09-17T21:47:35.517Z,4.25
2022-09-17T21:50:03.555Z,3.75
2022-09-17T21:55:00.812Z,4.10
2022-09-17T21:57:29.446Z,3.90
2022-09-17T21:59:57.225Z,3.53
2022-09-17T22:02:25.137Z,2.92
2022-09-17T22:04:53.054Z,3.70
2022-09-17T22:07:23.083Z,2.85
2022-09-17T22:09:51.483Z,7.18
2022-09-17T22:12:21.560Z,5.25
2022-09-17T22:14:49.539Z,2.92
2022-09-17T22:17:17.462Z,3.75
2022-09-17T22:19:45.363Z,3.88
2022-09-17T22:22:13.243Z,2.35
2022-09-17T22:24:44.636Z,4.13
2022-09-17T22:27:29.424Z,2.72
2022-09-17T22:29:57.484Z,3.75
2022-09-17T22:32:25.273Z,3.13
2022-09-17T22:35:10.358Z,3.70
2022-09-17T22:37:38.540Z,4.82
2022-09-17T22:40:07.819Z,4.53
2022-09-17T22:42:52.197Z,3.58
2022-09-17T22:45:20.588Z,2.75
2022-09-17T22:47:48.498Z,2.38
2022-09-17T22:50:16.967Z,3.58
2022-09-17T22:52:47.208Z,2.55
2022-09-17T22:55:15.918Z,5.40
2022-09-17T22:57:43.898Z,1.90
2022-09-17T23:00:26.310Z,3.47
2022-09-17T23:02:55.314Z,2.33
2022-09-17T23:05:23.224Z,4.28
2022-09-17T23:07:51.599Z,2.78
2022-09-17T23:10:19.694Z,2.97
2022-09-17T23:12:48.393Z,3.28
2022-09-17T23:15:16.563Z,1.50
2022-09-17T23:17:45.876Z,2.10
2022-09-17T23:20:13.798Z,2.85
2022-09-17T23:22:41.716Z,3.35
2022-09-17T23:25:10.213Z,3.00
2022-09-17T23:27:38.196Z,2.53
2022-09-17T23:30:06.696Z,2.05
2022-09-17T23:32:35.330Z,2.28
2022-09-17T23:35:04.913Z,1.75
2022-09-17T23:37:32.845Z,2.05
2022-09-17T23:40:00.611Z,1.85
2022-09-17T23:42:28.534Z,1.08
2022-09-17T23:44:56.313Z,3.20
2022-09-17T23:47:24.196Z,2.90
2022-09-17T23:49:51.942Z,1.85
2022-09-17T23:54:58.197Z,3.42
2022-09-17T23:57:27.920Z,1.48
2022-09-17T23:59:55.819Z,1.25
